Time;durP1;ratioP1;P1;durP2;ratioP2;P2;SDS_P1;SDS_P2;PMS_P1;PMS_P2;Temp;Humidity;BMP_temperature;BMP_pressure;BME280_temperature;BME280_humidity;BME280_pressure;Samples;Min_cycle;Max_cycle;Signal;HPM_P1;HPM_P2
2023/11/12 00:02:05;;;;;;;17.87;12.67;;;;;;;;;;2614146;47;20431;-78
2023/11/12 00:04:31;;;;;;;17.37;13.70;;;;;;;;;;2613986;47;20420;-79
2023/11/12 00:06:58;;;;;;;18.03;10.80;;;;;;;;;;2614292;54;20997;-77
2023/11/12 00:09:24;;;;;;;20.27;11.97;;;;;;;;;;2614665;54;20477;-77
2023/11/12 00:11:50;;;;;;;14.17;10.70;;;;;;;;;;2613814;54;20405;-76
2023/11/12 00:14:17;;;;;;;11.83;10.03;;;;;;;;;;2614556;54;20459;-77
2023/11/12 00:16:44;;;;;;;16.60;9.20;;;;;;;;;;2614105;54;20451;-79
2023/11/12 00:19:10;;;;;;;16.10;11.43;;;;;;;;;;2614097;39;20928;-78
2023/11/12 00:21:36;;;;;;;13.37;11.13;;;;;;;;;;2614531;54;20416;-78
2023/11/12 00:24:02;;;;;;;15.07;12.10;;;;;;;;;;2614567;54;20404;-77
2023/11/12 00:26:28;;;;;;;13.93;9.83;;;;;;;;;;2613818;54;20454;-80
2023/11/12 00:28:55;;;;;;;15.17;10.30;;;;;;;;;;2613920;47;20433;-78
2023/11/12 00:31:22;;;;;;;13.83;11.00;;;;;;;;;;2613900;54;20399;-79
2023/11/12 00:33:48;;;;;;;20.03;12.23;;;;;;;;;;2614202;54;20382;-78
2023/11/12 00:36:14;;;;;;;15.20;11.77;;;;;;;;;;2614770;54;20399;-77
2023/11/12 00:38:40;;;;;;;12.50;10.47;;;;;;;;;;2613755;54;20464;-79
2023/11/12 00:41:08;;;;;;;15.73;10.70;;;;;;;;;;2612936;54;20428;-77
2023/11/12 00:43:34;;;;;;;15.00;10.43;;;;;;;;;;2613973;54;20435;-78
2023/11/12 00:46:01;;;;;;;15.93;12.20;;;;;;;;;;2613733;47;20428;-78
2023/11/12 00:48:30;;;;;;;17.00;11.10;;;;;;;;;;2614546;54;20432;-78
2023/11/12 00:50:56;;;;;;;14.07;8.73;;;;;;;;;;2613935;47;20422;-76
2023/11/12 00:53:23;;;;;;;12.37;11.10;;;;;;;;;;2613737;54;21418;-78
2023/11/12 00:55:49;;;;;;;19.57;10.97;;;;;;;;;;2613702;47;20415;-78
2023/11/12 00:58:15;;;;;;;17.40;11.03;;;;;;;;;;2614102;54;20408;-79
2023/11/12 01:00:43;;;;;;;17.27;11.30;;;;;;;;;;2613096;47;20473;-78
2023/11/12 01:03:10;;;;;;;12.93;10.10;;;;;;;;;;2613443;47;20427;-77
2023/11/12 01:05:39;;;;;;;17.00;10.97;;;;;;;;;;2613354;47;20406;-77
2023/11/12 01:08:06;;;;;;;16.33;10.53;;;;;;;;;;2614690;39;20898;-77
2023/11/12 01:10:32;;;;;;;13.97;9.17;;;;;;;;;;2613062;54;20528;-77
2023/11/12 01:12:59;;;;;;;14.83;10.73;;;;;;;;;;2613219;51;20431;-78
2023/11/12 01:15:26;;;;;;;21.33;12.13;;;;;;;;;;2613322;54;20431;-78
2023/11/12 01:17:52;;;;;;;16.87;13.00;;;;;;;;;;2610622;47;21052;-75
2023/11/12 01:20:19;;;;;;;15.77;12.23;;;;;;;;;;2612288;54;20431;-75
2023/11/12 01:22:45;;;;;;;19.23;13.40;;;;;;;;;;2611848;54;20448;-75
2023/11/12 01:25:12;;;;;;;16.00;14.03;;;;;;;;;;2612828;39;20989;-75
2023/11/12 01:27:38;;;;;;;13.17;11.60;;;;;;;;;;2612138;54;20533;-75
2023/11/12 01:30:05;;;;;;;15.87;12.20;;;;;;;;;;2612744;54;20423;-75
2023/11/12 01:32:32;;;;;;;16.73;12.73;;;;;;;;;;2612391;54;20543;-75
2023/11/12 01:34:58;;;;;;;17.00;11.57;;;;;;;;;;2612144;54;20421;-75
2023/11/12 01:37:24;;;;;;;16.37;9.90;;;;;;;;;;2612955;39;20826;-76
2023/11/12 01:39:50;;;;;;;18.70;13.07;;;;;;;;;;2613390;54;20407;-76
2023/11/12 01:42:16;;;;;;;21.87;12.17;;;;;;;;;;2613110;39;20876;-75
2023/11/12 01:44:43;;;;;;;14.00;12.10;;;;;;;;;;2612204;54;20412;-74
2023/11/12 01:47:09;;;;;;;15.90;12.07;;;;;;;;;;2613029;54;20438;-75
2023/11/12 01:49:36;;;;;;;15.10;12.10;;;;;;;;;;2613153;54;20492;-74
2023/11/12 01:52:04;;;;;;;15.20;11.23;;;;;;;;;;2613139;54;21470;-74
2023/11/12 01:54:32;;;;;;;24.03;12.70;;;;;;;;;;2613429;54;21313;-76
2023/11/12 01:56:58;;;;;;;16.67;11.93;;;;;;;;;;2612794;54;20431;-76
2023/11/12 01:59:24;;;;;;;17.20;11.27;;;;;;;;;;2612939;54;20542;-75
2023/11/12 02:01:51;;;;;;;14.70;11.07;;;;;;;;;;2611944;54;20428;-75
2023/11/12 02:04:18;;;;;;;15.57;12.17;;;;;;;;;;2612600;39;20807;-76
2023/11/12 02:06:44;;;;;;;15.40;11.37;;;;;;;;;;2612761;54;20406;-76
2023/11/12 02:09:10;;;;;;;17.57;11.77;;;;;;;;;;2611965;54;20559;-75
2023/11/12 02:11:37;;;;;;;21.57;14.77;;;;;;;;;;2613153;39;20805;-75
2023/11/12 02:14:03;;;;;;;13.17;9.90;;;;;;;;;;2612903;46;20464;-75
2023/11/12 02:16:29;;;;;;;14.90;11.43;;;;;;;;;;2612520;54;20906;-75
2023/11/12 02:18:55;;;;;;;15.87;11.60;;;;;;;;;;2612600;54;20552;-75
2023/11/12 02:21:32;;;;;;;15.97;12.20;;;;;;;;;;2612464;54;20429;-74
2023/11/12 02:23:59;;;;;;;14.00;9.60;;;;;;;;;;2612877;54;20438;-75
2023/11/12 02:26:25;;;;;;;16.50;11.50;;;;;;;;;;2612261;54;21075;-75
2023/11/12 02:28:51;;;;;;;16.10;10.93;;;;;;;;;;2612189;54;20384;-75
2023/11/12 02:31:30;;;;;;;13.50;10.47;;;;;;;;;;2611149;54;20426;-75
2023/11/12 02:33:55;;;;;;;15.80;10.77;;;;;;;;;;2612144;54;20410;-74
2023/11/12 02:36:25;;;;;;;13.07;9.67;;;;;;;;;;2609846;54;20539;-75
2023/11/12 02:38:51;;;;;;;15.83;11.27;;;;;;;;;;2610549;39;20832;-74
2023/11/12 02:41:19;;;;;;;13.63;10.57;;;;;;;;;;2612651;54;20557;-75
2023/11/12 02:43:46;;;;;;;17.30;11.20;;;;;;;;;;2612854;54;20416;-74
2023/11/12 02:46:15;;;;;;;10.70;9.00;;;;;;;;;;2613477;54;20447;-75
2023/11/12 02:48:52;;;;;;;14.37;10.70;;;;;;;;;;2612136;39;20821;-76
2023/11/12 02:51:19;;;;;;;16.30;10.70;;;;;;;;;;2612523;54;20384;-76
2023/11/12 02:53:46;;;;;;;13.73;9.63;;;;;;;;;;2611445;54;20443;-75
2023/11/12 02:56:13;;;;;;;16.43;11.10;;;;;;;;;;2611945;39;20858;-74
2023/11/12 02:58:39;;;;;;;14.40;11.13;;;;;;;;;;2611766;54;20430;-75
2023/11/12 03:01:05;;;;;;;13.40;10.57;;;;;;;;;;2612599;54;20408;-75
2023/11/12 03:03:31;;;;;;;15.80;12.47;;;;;;;;;;2612289;47;20417;-75
2023/11/12 03:05:57;;;;;;;14.70;10.80;;;;;;;;;;2612250;54;20394;-75
2023/11/12 03:08:23;;;;;;;17.53;11.00;;;;;;;;;;2611985;54;20915;-75
2023/11/12 03:10:49;;;;;;;15.70;11.07;;;;;;;;;;2612196;54;20419;-76
2023/11/12 03:13:15;;;;;;;12.77;9.37;;;;;;;;;;2611474;47;20438;-76
2023/11/12 03:15:42;;;;;;;14.83;11.23;;;;;;;;;;2612202;54;20409;-76
2023/11/12 03:18:09;;;;;;;16.37;11.43;;;;;;;;;;2612545;46;20410;-76
2023/11/12 03:20:35;;;;;;;13.40;10.90;;;;;;;;;;2611640;54;20406;-75
2023/11/12 03:23:03;;;;;;;14.60;10.60;;;;;;;;;;2611199;47;20413;-76
2023/11/12 03:25:29;;;;;;;16.23;11.60;;;;;;;;;;2612564;54;20403;-75
2023/11/12 03:27:55;;;;;;;13.20;9.93;;;;;;;;;;2612220;54;20389;-76
2023/11/12 03:30:21;;;;;;;14.77;11.30;;;;;;;;;;2612405;39;20823;-76
2023/11/12 03:32:47;;;;;;;13.00;10.10;;;;;;;;;;2611813;54;20822;-76
2023/11/12 03:35:13;;;;;;;13.00;9.97;;;;;;;;;;2611563;46;20432;-76
2023/11/12 03:37:39;;;;;;;20.30;11.57;;;;;;;;;;2612144;54;20419;-76
2023/11/12 03:40:05;;;;;;;14.83;9.70;;;;;;;;;;2611920;54;20421;-75
2023/11/12 03:42:31;;;;;;;17.80;10.33;;;;;;;;;;2611414;54;20401;-75
2023/11/12 03:44:57;;;;;;;16.80;10.90;;;;;;;;;;2610162;39;20510;-76
2023/11/12 03:47:24;;;;;;;16.30;11.57;;;;;;;;;;2611216;48;20430;-75
2023/11/12 03:49:50;;;;;;;15.33;11.20;;;;;;;;;;2611831;54;20368;-75
2023/11/12 03:52:16;;;;;;;15.17;10.17;;;;;;;;;;2611829;54;20970;-76
2023/11/12 03:54:42;;;;;;;16.00;10.87;;;;;;;;;;2612261;54;20423;-75
2023/11/12 03:57:09;;;;;;;15.10;10.73;;;;;;;;;;2611909;54;20448;-75
2023/11/12 03:59:38;;;;;;;17.60;11.83;;;;;;;;;;2611588;54;20454;-76
2023/11/12 04:02:04;;;;;;;15.10;9.40;;;;;;;;;;2612126;54;20391;-76
2023/11/12 04:04:30;;;;;;;13.73;9.63;;;;;;;;;;2612008;54;20942;-76
2023/11/12 04:06:57;;;;;;;18.20;11.10;;;;;;;;;;2611903;54;20395;-76
2023/11/12 04:09:23;;;;;;;20.30;10.77;;;;;;;;;;2611276;54;20466;-75
2023/11/12 04:11:49;;;;;;;15.57;11.83;;;;;;;;;;2611773;39;20901;-75
2023/11/12 04:14:15;;;;;;;13.20;10.00;;;;;;;;;;2612522;54;20392;-75
2023/11/12 04:16:41;;;;;;;12.50;9.80;;;;;;;;;;2611845;54;20425;-75
2023/11/12 04:19:07;;;;;;;15.77;10.37;;;;;;;;;;2612350;46;20433;-75
2023/11/12 04:21:35;;;;;;;13.93;10.17;;;;;;;;;;2611642;54;20404;-75
2023/11/12 04:24:01;;;;;;;18.93;10.80;;;;;;;;;;2612375;39;21075;-76
2023/11/12 04:26:29;;;;;;;12.87;9.57;;;;;;;;;;2611720;54;20398;-75
2023/11/12 04:28:55;;;;;;;15.40;10.30;;;;;;;;;;2611750;54;20391;-75
2023/11/12 04:31:21;;;;;;;22.53;9.93;;;;;;;;;;2611433;39;20946;-76
2023/11/12 04:33:47;;;;;;;16.90;9.70;;;;;;;;;;2612100;54;20513;-76
2023/11/12 04:36:14;;;;;;;17.03;10.77;;;;;;;;;;2610944;47;20940;-76
2023/11/12 04:38:40;;;;;;;16.93;10.40;;;;;;;;;;2611438;54;20404;-76
2023/11/12 04:41:11;;;;;;;15.73;10.80;;;;;;;;;;2611499;39;20808;-75
2023/11/12 04:43:37;;;;;;;20.23;11.40;;;;;;;;;;2611943;39;20797;-75
2023/11/12 04:46:03;;;;;;;18.33;11.40;;;;;;;;;;2611866;54;20395;-75
2023/11/12 04:48:29;;;;;;;18.33;10.37;;;;;;;;;;2611576;54;20915;-75
2023/11/12 04:50:56;;;;;;;20.30;11.77;;;;;;;;;;2612402;54;20383;-76
2023/11/12 04:53:22;;;;;;;15.87;10.43;;;;;;;;;;2611001;54;20560;-75
2023/11/12 04:55:48;;;;;;;14.13;9.73;;;;;;;;;;2611071;47;20424;-74
2023/11/12 04:58:15;;;;;;;17.50;11.13;;;;;;;;;;2611464;47;20523;-75
2023/11/12 05:00:41;;;;;;;15.30;9.57;;;;;;;;;;2612165;54;20393;-77
2023/11/12 05:03:07;;;;;;;16.57;10.50;;;;;;;;;;2611511;47;20415;-75
2023/11/12 05:05:33;;;;;;;15.43;8.93;;;;;;;;;;2611362;54;20510;-75
2023/11/12 05:07:59;;;;;;;14.90;9.43;;;;;;;;;;2613070;54;20415;-75
2023/11/12 05:10:26;;;;;;;11.83;9.67;;;;;;;;;;2612357;54;20398;-76
2023/11/12 05:12:52;;;;;;;14.97;9.70;;;;;;;;;;2612237;46;20447;-75
2023/11/12 05:15:18;;;;;;;18.50;10.30;;;;;;;;;;2612612;54;20937;-76
2023/11/12 05:17:44;;;;;;;16.53;9.50;;;;;;;;;;2612465;54;20404;-76
2023/11/12 05:20:10;;;;;;;14.60;10.60;;;;;;;;;;2611953;54;21020;-76
2023/11/12 05:22:37;;;;;;;12.50;9.70;;;;;;;;;;2612197;46;20438;-76
2023/11/12 05:25:03;;;;;;;13.70;9.70;;;;;;;;;;2611838;54;20403;-76
2023/11/12 05:27:29;;;;;;;16.43;9.90;;;;;;;;;;2611882;51;20540;-75
2023/11/12 05:29:55;;;;;;;16.63;10.10;;;;;;;;;;2611910;54;20416;-75
2023/11/12 05:32:21;;;;;;;11.60;8.73;;;;;;;;;;2610854;47;21436;-76
2023/11/12 05:34:47;;;;;;;13.27;9.00;;;;;;;;;;2611574;54;21798;-76
2023/11/12 05:37:13;;;;;;;14.93;9.17;;;;;;;;;;2611878;54;20407;-76
2023/11/12 05:39:39;;;;;;;10.77;8.00;;;;;;;;;;2611265;54;20388;-75
2023/11/12 05:42:05;;;;;;;11.20;8.40;;;;;;;;;;2611864;54;21086;-76
2023/11/12 05:44:31;;;;;;;11.37;8.93;;;;;;;;;;2611828;47;20423;-75
2023/11/12 05:46:57;;;;;;;11.60;8.60;;;;;;;;;;2611925;54;20475;-74
2023/11/12 05:49:24;;;;;;;13.40;9.90;;;;;;;;;;2613111;46;20419;-75
2023/11/12 05:51:50;;;;;;;11.47;8.73;;;;;;;;;;2611863;54;20419;-76
2023/11/12 05:54:16;;;;;;;13.07;9.67;;;;;;;;;;2611801;54;20469;-76
2023/11/12 05:56:42;;;;;;;13.60;8.60;;;;;;;;;;2611767;47;21394;-76
2023/11/12 05:59:09;;;;;;;12.03;8.53;;;;;;;;;;2614126;39;20765;-74
2023/11/12 06:01:35;;;;;;;16.20;9.50;;;;;;;;;;2613410;46;20447;-74
2023/11/12 06:04:02;;;;;;;11.70;8.70;;;;;;;;;;2613961;54;20418;-75
2023/11/12 06:06:28;;;;;;;13.63;10.07;;;;;;;;;;2612842;47;20515;-75
2023/11/12 06:08:54;;;;;;;12.40;8.90;;;;;;;;;;2613099;54;20443;-75
2023/11/12 06:11:21;;;;;;;14.97;8.53;;;;;;;;;;2613371;39;20896;-74
2023/11/12 06:13:47;;;;;;;12.20;8.53;;;;;;;;;;2613804;39;20804;-74
2023/11/12 06:16:13;;;;;;;14.10;8.47;;;;;;;;;;2613084;54;20423;-74
2023/11/12 06:18:39;;;;;;;14.83;9.03;;;;;;;;;;2613463;54;20442;-74
2023/11/12 06:21:05;;;;;;;15.37;9.40;;;;;;;;;;2613853;39;20791;-74
2023/11/12 06:23:31;;;;;;;12.53;9.60;;;;;;;;;;2613822;54;20603;-75
2023/11/12 06:25:57;;;;;;;16.37;9.60;;;;;;;;;;2612670;47;20446;-74
2023/11/12 06:28:24;;;;;;;11.73;9.30;;;;;;;;;;2614191;54;20539;-75
2023/11/12 06:30:53;;;;;;;16.13;9.90;;;;;;;;;;2612635;47;20395;-75
2023/11/12 06:33:20;;;;;;;16.73;8.60;;;;;;;;;;2612885;47;20464;-74
2023/11/12 06:35:46;;;;;;;16.27;9.40;;;;;;;;;;2613378;54;20522;-76
2023/11/12 06:38:13;;;;;;;17.40;10.40;;;;;;;;;;2613607;54;20436;-75
2023/11/12 06:40:39;;;;;;;13.13;8.23;;;;;;;;;;2612724;54;20423;-74
2023/11/12 06:43:05;;;;;;;12.43;9.07;;;;;;;;;;2612913;39;20767;-75
2023/11/12 06:45:31;;;;;;;13.70;8.40;;;;;;;;;;2613275;54;20415;-75
2023/11/12 06:47:57;;;;;;;13.70;9.60;;;;;;;;;;2613777;54;20411;-75
2023/11/12 06:50:24;;;;;;;15.03;8.30;;;;;;;;;;2613076;47;20441;-75
2023/11/12 06:52:50;;;;;;;12.43;8.00;;;;;;;;;;2613744;54;20400;-75
2023/11/12 06:55:16;;;;;;;11.93;9.00;;;;;;;;;;2613960;54;20439;-75
2023/11/12 06:57:42;;;;;;;10.20;7.90;;;;;;;;;;2614053;47;20409;-79
2023/11/12 07:00:09;;;;;;;11.07;8.53;;;;;;;;;;2612612;46;20415;-77
2023/11/12 07:02:37;;;;;;;10.83;8.27;;;;;;;;;;2612095;54;20416;-75
2023/11/12 07:05:04;;;;;;;15.00;8.30;;;;;;;;;;2610171;54;20563;-74
2023/11/12 07:07:31;;;;;;;14.33;9.20;;;;;;;;;;2610421;47;20530;-75
2023/11/12 07:09:57;;;;;;;18.17;7.50;;;;;;;;;;2610565;54;20435;-75
2023/11/12 07:12:23;;;;;;;9.33;7.60;;;;;;;;;;2611754;54;20390;-75
2023/11/12 07:14:50;;;;;;;18.57;8.20;;;;;;;;;;2610581;54;20392;-75
2023/11/12 07:17:18;;;;;;;10.13;7.67;;;;;;;;;;2611872;54;20411;-76
2023/11/12 07:19:44;;;;;;;12.03;8.57;;;;;;;;;;2611126;54;20999;-75
2023/11/12 07:22:11;;;;;;;13.60;8.30;;;;;;;;;;2610763;54;20415;-75
2023/11/12 07:24:37;;;;;;;12.03;7.60;;;;;;;;;;2610454;46;20465;-76
2023/11/12 07:27:04;;;;;;;12.90;8.93;;;;;;;;;;2611755;54;20435;-76
2023/11/12 07:29:30;;;;;;;10.70;7.57;;;;;;;;;;2610892;54;20982;-75
2023/11/12 07:31:56;;;;;;;16.23;8.33;;;;;;;;;;2612013;39;20857;-75
2023/11/12 07:34:22;;;;;;;10.87;8.27;;;;;;;;;;2609782;47;20423;-75
2023/11/12 07:36:48;;;;;;;10.63;8.20;;;;;;;;;;2610939;47;20416;-76
2023/11/12 07:39:14;;;;;;;10.50;7.63;;;;;;;;;;2610932;47;20988;-75
2023/11/12 07:41:40;;;;;;;7.40;6.57;;;;;;;;;;2612008;54;20535;-74
2023/11/12 07:44:06;;;;;;;10.30;7.00;;;;;;;;;;2612080;39;20823;-75
2023/11/12 07:46:33;;;;;;;10.00;7.10;;;;;;;;;;2611915;47;20398;-76
2023/11/12 07:48:59;;;;;;;9.50;7.40;;;;;;;;;;2610694;47;20468;-74
2023/11/12 07:51:25;;;;;;;9.47;6.93;;;;;;;;;;2611147;39;20793;-76
2023/11/12 07:53:52;;;;;;;9.27;6.70;;;;;;;;;;2611540;54;20431;-77
2023/11/12 07:56:20;;;;;;;7.70;6.57;;;;;;;;;;2610677;54;20404;-74
2023/11/12 07:58:47;;;;;;;11.77;7.30;;;;;;;;;;2610584;54;20490;-75
2023/11/12 08:01:15;;;;;;;8.20;7.33;;;;;;;;;;2611427;54;20408;-75
2023/11/12 08:03:42;;;;;;;10.90;7.73;;;;;;;;;;2612089;54;20410;-75
2023/11/12 08:06:09;;;;;;;7.97;6.90;;;;;;;;;;2612254;54;20411;-75
2023/11/12 08:08:35;;;;;;;11.20;7.57;;;;;;;;;;2611089;39;20928;-75
2023/11/12 08:11:01;;;;;;;9.10;6.07;;;;;;;;;;2610672;54;20443;-75
2023/11/12 08:13:27;;;;;;;7.50;5.40;;;;;;;;;;2612213;54;20544;-75
2023/11/12 08:15:53;;;;;;;7.40;5.00;;;;;;;;;;2611748;54;20431;-76
2023/11/12 08:18:19;;;;;;;6.67;4.50;;;;;;;;;;2612102;54;20408;-76
2023/11/12 08:20:46;;;;;;;4.87;4.47;;;;;;;;;;2612329;54;20415;-75
2023/11/12 08:23:12;;;;;;;6.73;5.47;;;;;;;;;;2612602;39;21627;-75
2023/11/12 08:25:38;;;;;;;5.10;4.23;;;;;;;;;;2611106;54;20411;-77
2023/11/12 08:28:04;;;;;;;5.73;4.30;;;;;;;;;;2612028;54;20399;-75
2023/11/12 08:30:31;;;;;;;5.70;5.00;;;;;;;;;;2612841;54;21268;-75
2023/11/12 08:32:57;;;;;;;6.03;5.30;;;;;;;;;;2611803;54;20395;-76
2023/11/12 08:35:24;;;;;;;5.93;4.20;;;;;;;;;;2613501;54;20390;-75
2023/11/12 08:37:50;;;;;;;5.60;5.00;;;;;;;;;;2613487;54;20392;-76
2023/11/12 08:40:16;;;;;;;6.73;5.13;;;;;;;;;;2613400;54;20485;-75
2023/11/12 08:42:42;;;;;;;6.77;4.87;;;;;;;;;;2611785;54;20394;-76
2023/11/12 08:45:09;;;;;;;6.50;4.77;;;;;;;;;;2612993;54;20431;-74
2023/11/12 08:47:35;;;;;;;4.60;4.17;;;;;;;;;;2611585;54;20415;-75
2023/11/12 08:50:01;;;;;;;5.03;4.30;;;;;;;;;;2612851;46;20431;-75
2023/11/12 08:52:27;;;;;;;8.60;4.90;;;;;;;;;;2612697;54;20450;-75
2023/11/12 08:54:54;;;;;;;5.40;4.47;;;;;;;;;;2612593;54;20439;-75
2023/11/12 08:57:20;;;;;;;6.00;4.10;;;;;;;;;;2612439;54;20410;-76
2023/11/12 08:59:47;;;;;;;6.50;4.53;;;;;;;;;;2611858;54;20491;-75
2023/11/12 09:02:13;;;;;;;5.10;4.53;;;;;;;;;;2611507;47;23793;-78
2023/11/12 09:04:39;;;;;;;4.87;4.47;;;;;;;;;;2612862;54;20423;-81
2023/11/12 09:07:07;;;;;;;5.90;5.07;;;;;;;;;;2612622;47;20535;-78
2023/11/12 09:09:33;;;;;;;4.43;4.03;;;;;;;;;;2611472;49;20462;-77
2023/11/12 09:11:59;;;;;;;5.67;4.67;;;;;;;;;;2609832;54;20575;-76
2023/11/12 09:14:25;;;;;;;5.57;5.07;;;;;;;;;;2611725;54;20422;-76
2023/11/12 09:16:51;;;;;;;12.60;5.50;;;;;;;;;;2613667;54;20984;-76
2023/11/12 09:19:17;;;;;;;5.13;4.70;;;;;;;;;;2612613;54;20399;-76
2023/11/12 09:21:43;;;;;;;7.90;4.67;;;;;;;;;;2612585;47;20455;-76
2023/11/12 09:24:09;;;;;;;7.60;4.83;;;;;;;;;;2612175;54;20817;-76
2023/11/12 09:26:35;;;;;;;5.30;4.80;;;;;;;;;;2613312;39;20991;-75
2023/11/12 09:29:02;;;;;;;7.43;5.73;;;;;;;;;;2613770;54;20458;-75
2023/11/12 09:31:28;;;;;;;6.90;5.87;;;;;;;;;;2612327;47;20411;-76
2023/11/12 09:33:54;;;;;;;5.80;4.97;;;;;;;;;;2613061;54;20505;-76
2023/11/12 09:36:20;;;;;;;5.10;4.70;;;;;;;;;;2612581;49;20966;-76
2023/11/12 09:38:47;;;;;;;6.07;5.57;;;;;;;;;;2613282;31;20943;-76
2023/11/12 09:41:14;;;;;;;6.23;5.70;;;;;;;;;;2612584;49;20441;-76
2023/11/12 09:43:41;;;;;;;5.90;5.50;;;;;;;;;;2613242;54;20415;-75
2023/11/12 09:46:08;;;;;;;7.20;6.43;;;;;;;;;;2612065;54;20450;-75
2023/11/12 09:48:39;;;;;;;5.20;4.80;;;;;;;;;;2611708;47;20458;-76
2023/11/12 09:51:09;;;;;;;5.57;5.10;;;;;;;;;;2610903;54;20423;-76
2023/11/12 09:53:42;;;;;;;5.37;4.97;;;;;;;;;;2613116;39;20796;-75
2023/11/12 09:56:08;;;;;;;6.40;5.90;;;;;;;;;;2612183;47;20438;-75
2023/11/12 09:58:37;;;;;;;5.33;4.90;;;;;;;;;;2611514;31;20967;-75
2023/11/12 10:01:06;;;;;;;6.10;5.60;;;;;;;;;;2612005;54;20424;-75
2023/11/12 10:03:34;;;;;;;5.83;5.40;;;;;;;;;;2612198;54;20396;-75
2023/11/12 10:06:03;;;;;;;6.00;5.50;;;;;;;;;;2612690;47;20465;-75
2023/11/12 10:08:29;;;;;;;5.87;5.47;;;;;;;;;;2612940;54;20442;-75
2023/11/12 10:11:13;;;;;;;6.20;5.80;;;;;;;;;;2612804;54;20412;-76
2023/11/12 10:13:42;;;;;;;8.63;5.90;;;;;;;;;;2613485;54;20424;-78
2023/11/12 10:16:22;;;;;;;6.80;6.20;;;;;;;;;;2612246;50;20428;-75
2023/11/12 10:18:48;;;;;;;5.87;5.33;;;;;;;;;;2613551;54;20447;-76
2023/11/12 10:21:14;;;;;;;6.30;5.80;;;;;;;;;;2612519;46;20473;-76
2023/11/12 10:23:41;;;;;;;5.67;5.17;;;;;;;;;;2613800;54;20464;-75
2023/11/12 10:26:14;;;;;;;6.00;5.40;;;;;;;;;;2613392;54;20407;-75
2023/11/12 10:28:40;;;;;;;6.53;6.03;;;;;;;;;;2613263;54;20395;-75
2023/11/12 10:31:13;;;;;;;6.30;5.80;;;;;;;;;;2612136;54;20551;-75
2023/11/12 10:33:41;;;;;;;6.40;5.90;;;;;;;;;;2611838;54;21006;-75
2023/11/12 10:36:11;;;;;;;6.33;5.73;;;;;;;;;;2612651;47;20427;-75
2023/11/12 10:38:50;;;;;;;6.47;5.97;;;;;;;;;;2612762;54;20422;-76
2023/11/12 10:41:16;;;;;;;6.03;5.63;;;;;;;;;;2613661;54;20455;-75
2023/11/12 10:43:56;;;;;;;6.10;5.70;;;;;;;;;;2612749;39;20900;-76
2023/11/12 10:46:22;;;;;;;8.03;5.90;;;;;;;;;;2613256;54;20430;-75
2023/11/12 10:48:49;;;;;;;6.73;6.23;;;;;;;;;;2612614;54;20427;-75
2023/11/12 10:51:15;;;;;;;5.83;5.33;;;;;;;;;;2613843;54;20439;-75
2023/11/12 10:53:42;;;;;;;6.07;5.60;;;;;;;;;;2613446;54;21894;-76
2023/11/12 10:56:09;;;;;;;6.27;5.77;;;;;;;;;;2612950;47;20407;-75
2023/11/12 10:58:36;;;;;;;7.40;6.77;;;;;;;;;;2611540;51;20443;-76
2023/11/12 11:01:04;;;;;;;7.00;6.53;;;;;;;;;;2613484;54;20419;-75
2023/11/12 11:03:31;;;;;;;6.30;5.77;;;;;;;;;;2613524;54;20432;-75
2023/11/12 11:05:59;;;;;;;6.40;5.93;;;;;;;;;;2614127;39;20787;-75
2023/11/12 11:08:30;;;;;;;6.80;6.40;;;;;;;;;;2612508;47;20456;-75
2023/11/12 11:10:57;;;;;;;6.83;6.23;;;;;;;;;;2613383;54;20423;-75
2023/11/12 11:13:25;;;;;;;6.60;6.00;;;;;;;;;;2613071;54;20412;-76
2023/11/12 11:15:56;;;;;;;5.70;5.30;;;;;;;;;;2613198;54;20426;-75
2023/11/12 11:18:35;;;;;;;6.47;5.80;;;;;;;;;;2617956;54;20216;-75
2023/11/12 11:21:15;;;;;;;6.00;5.50;;;;;;;;;;2617917;38;20935;-75
2023/11/12 11:23:41;;;;;;;6.07;5.70;;;;;;;;;;2617374;54;20438;-76
2023/11/12 11:26:29;;;;;;;6.83;6.43;;;;;;;;;;2617664;39;20829;-75
2023/11/12 11:29:18;;;;;;;7.03;6.53;;;;;;;;;;2618209;54;20423;-75
2023/11/12 11:31:47;;;;;;;6.43;5.93;;;;;;;;;;2617730;54;20522;-75
2023/11/12 11:34:14;;;;;;;7.03;6.43;;;;;;;;;;2617393;54;20383;-75
2023/11/12 11:36:42;;;;;;;5.83;5.53;;;;;;;;;;2617906;54;20411;-75
2023/11/12 11:39:12;;;;;;;5.80;5.40;;;;;;;;;;2616830;54;20426;-75
2023/11/12 11:41:55;;;;;;;5.83;5.53;;;;;;;;;;2617671;54;20419;-75
2023/11/12 11:47:05;;;;;;;6.60;6.00;;;;;;;;;;2617646;54;20395;-76
2023/11/12 11:49:31;;;;;;;6.73;5.73;;;;;;;;;;2617956;54;20445;-74
2023/11/12 11:52:00;;;;;;;6.30;5.90;;;;;;;;;;2617298;54;20510;-76
2023/11/12 11:54:26;;;;;;;5.97;5.40;;;;;;;;;;2616420;46;20419;-75
2023/11/12 11:56:58;;;;;;;8.37;5.70;;;;;;;;;;2617744;38;21036;-75
2023/11/12 11:59:25;;;;;;;5.73;5.43;;;;;;;;;;2617574;46;20518;-74
2023/11/12 12:01:55;;;;;;;6.07;5.53;;;;;;;;;;2616091;54;20454;-75
2023/11/12 12:04:23;;;;;;;5.70;5.40;;;;;;;;;;2616486;54;20454;-75
2023/11/12 12:06:52;;;;;;;6.00;5.60;;;;;;;;;;2616751;54;20414;-74
2023/11/12 12:09:19;;;;;;;5.93;5.63;;;;;;;;;;2616616;51;20419;-75
2023/11/12 12:11:51;;;;;;;5.50;5.20;;;;;;;;;;2616068;38;20511;-75
2023/11/12 12:14:17;;;;;;;5.97;5.57;;;;;;;;;;2616736;46;20426;-76
2023/11/12 12:16:43;;;;;;;6.17;5.70;;;;;;;;;;2615858;54;20534;-75
2023/11/12 12:19:14;;;;;;;6.57;6.17;;;;;;;;;;2616202;46;20419;-75
2023/11/12 12:21:45;;;;;;;6.50;6.00;;;;;;;;;;2616804;54;20481;-74
2023/11/12 12:24:11;;;;;;;5.67;5.17;;;;;;;;;;2616649;54;20403;-74
2023/11/12 12:26:37;;;;;;;6.40;5.83;;;;;;;;;;2617417;54;20502;-74
2023/11/12 12:29:17;;;;;;;6.10;5.60;;;;;;;;;;2614460;54;20399;-75
2023/11/12 12:31:44;;;;;;;6.23;5.73;;;;;;;;;;2612526;47;20466;-74
2023/11/12 12:34:11;;;;;;;6.97;6.47;;;;;;;;;;2613394;54;20427;-74
2023/11/12 12:36:37;;;;;;;6.00;5.50;;;;;;;;;;2612540;46;20426;-76
2023/11/12 12:39:06;;;;;;;5.20;4.90;;;;;;;;;;2612743;46;20442;-75
2023/11/12 12:41:33;;;;;;;5.30;4.97;;;;;;;;;;2614035;54;20438;-75
2023/11/12 12:44:00;;;;;;;5.47;5.07;;;;;;;;;;2612039;54;20982;-74
2023/11/12 12:46:46;;;;;;;5.23;4.83;;;;;;;;;;2612925;47;20408;-75
2023/11/12 12:49:32;;;;;;;6.67;6.20;;;;;;;;;;2612863;46;20430;-75
2023/11/12 12:51:59;;;;;;;6.23;5.60;;;;;;;;;;2613222;54;20430;-75
2023/11/12 12:54:26;;;;;;;6.40;5.50;;;;;;;;;;2613076;54;20434;-76
2023/11/12 12:56:55;;;;;;;7.87;5.60;;;;;;;;;;2611863;54;20515;-75
2023/11/12 12:59:22;;;;;;;5.63;5.30;;;;;;;;;;2613360;47;20443;-75
2023/11/12 13:01:48;;;;;;;6.53;5.93;;;;;;;;;;2613279;54;20962;-75
2023/11/12 13:04:17;;;;;;;7.63;6.40;;;;;;;;;;2611465;54;20997;-74
2023/11/12 13:06:43;;;;;;;5.50;5.07;;;;;;;;;;2612650;46;20424;-75
2023/11/12 13:09:26;;;;;;;6.27;5.77;;;;;;;;;;2614033;54;20806;-82
2023/11/12 13:11:53;;;;;;;6.87;6.03;;;;;;;;;;2613523;54;20427;-77
2023/11/12 13:14:20;;;;;;;5.90;5.50;;;;;;;;;;2613400;47;20507;-76
2023/11/12 13:16:46;;;;;;;7.03;5.50;;;;;;;;;;2612944;54;20578;-76
2023/11/12 13:19:15;;;;;;;7.03;6.27;;;;;;;;;;2612186;47;20427;-74
2023/11/12 13:21:49;;;;;;;7.93;5.90;;;;;;;;;;2612639;54;20875;-73
2023/11/12 13:24:15;;;;;;;9.23;6.53;;;;;;;;;;2612651;54;20445;-74
2023/11/12 13:26:42;;;;;;;7.43;6.20;;;;;;;;;;2613104;54;20434;-73
2023/11/12 13:29:09;;;;;;;5.67;5.20;;;;;;;;;;2612362;54;20446;-74
2023/11/12 13:31:40;;;;;;;6.60;6.10;;;;;;;;;;2613282;54;20426;-75
2023/11/12 13:34:06;;;;;;;8.83;8.00;;;;;;;;;;2612599;47;20406;-75
2023/11/12 13:36:33;;;;;;;7.63;6.03;;;;;;;;;;2613450;54;20615;-75
2023/11/12 13:39:00;;;;;;;6.67;6.13;;;;;;;;;;2613003;54;20406;-74
2023/11/12 13:41:27;;;;;;;6.40;5.87;;;;;;;;;;2611343;51;20419;-75
2023/11/12 13:43:54;;;;;;;6.33;5.90;;;;;;;;;;2612975;54;20392;-73
2023/11/12 13:46:21;;;;;;;10.90;7.13;;;;;;;;;;2613433;39;20822;-75
2023/11/12 13:48:47;;;;;;;6.90;6.30;;;;;;;;;;2613939;39;20806;-74
2023/11/12 13:51:17;;;;;;;9.73;5.87;;;;;;;;;;2612703;54;20431;-74
2023/11/12 13:53:44;;;;;;;9.53;6.60;;;;;;;;;;2612804;54;20412;-74
2023/11/12 13:56:12;;;;;;;7.67;7.07;;;;;;;;;;2612662;51;20395;-74
2023/11/12 13:58:42;;;;;;;7.50;5.83;;;;;;;;;;2612841;54;20454;-74
2023/11/12 14:01:08;;;;;;;6.17;5.57;;;;;;;;;;2612178;54;20639;-74
2023/11/12 14:03:35;;;;;;;5.80;5.30;;;;;;;;;;2612383;54;20769;-73
2023/11/12 14:06:03;;;;;;;6.63;5.40;;;;;;;;;;2612554;47;20431;-74
2023/11/12 14:08:30;;;;;;;5.83;5.43;;;;;;;;;;2613318;47;20468;-73
2023/11/12 14:10:56;;;;;;;7.20;5.20;;;;;;;;;;2612812;54;20518;-74
2023/11/12 14:13:23;;;;;;;5.00;4.60;;;;;;;;;;2613164;54;21014;-77
2023/11/12 14:15:50;;;;;;;5.37;4.93;;;;;;;;;;2612545;54;20407;-76
2023/11/12 14:18:17;;;;;;;5.77;5.37;;;;;;;;;;2613474;54;20451;-74
2023/11/12 14:20:45;;;;;;;6.80;5.10;;;;;;;;;;2613285;54;20431;-74
2023/11/12 14:23:12;;;;;;;8.13;5.70;;;;;;;;;;2612358;47;20427;-74
2023/11/12 14:25:39;;;;;;;6.60;5.80;;;;;;;;;;2611971;47;20419;-74
2023/11/12 14:28:06;;;;;;;5.60;5.20;;;;;;;;;;2612764;54;20392;-74
2023/11/12 14:30:37;;;;;;;6.10;5.07;;;;;;;;;;2613147;54;20410;-75
2023/11/12 14:33:03;;;;;;;6.77;5.40;;;;;;;;;;2613483;54;20433;-75
2023/11/12 14:35:29;;;;;;;6.63;5.50;;;;;;;;;;2613487;54;20403;-73